createdAt,value
2018-07-14T00:01:21.932Z,6.27
2018-07-14T00:05:25.618Z,8.30
2018-07-14T00:09:29.185Z,7.27
2018-07-14T00:13:32.934Z,4.80
2018-07-14T00:17:36.626Z,5.80
2018-07-14T00:21:40.149Z,3.07
2018-07-14T00:25:49.277Z,6.10
2018-07-14T00:29:53.275Z,7.03
2018-07-14T00:33:57.183Z,3.97
2018-07-14T00:38:00.835Z,3.40
2018-07-14T00:42:04.400Z,3.47
2018-07-14T00:46:07.928Z,3.03
2018-07-14T00:50:11.515Z,3.60
2018-07-14T00:54:15.281Z,2.90
2018-07-14T00:58:19.205Z,2.07
2018-07-14T01:02:51.841Z,3.77
2018-07-14T01:06:55.759Z,2.90
2018-07-14T01:11:08.848Z,3.30
2018-07-14T01:15:12.520Z,4.43
2018-07-14T01:19:23.317Z,3.87
2018-07-14T01:23:26.893Z,4.30
2018-07-14T01:27:30.416Z,6.23
2018-07-14T01:31:34.300Z,8.17
2018-07-14T01:35:38.209Z,8.23
2018-07-14T01:39:41.871Z,6.70
2018-07-14T01:43:45.653Z,4.17
2018-07-14T01:47:49.615Z,4.40
2018-07-14T01:51:53.548Z,2.60
2018-07-14T01:55:57.128Z,3.83
2018-07-14T02:00:00.952Z,3.50
2018-07-14T02:04:04.663Z,3.90
2018-07-14T02:08:08.210Z,3.83
2018-07-14T02:12:12.083Z,2.77
2018-07-14T02:16:15.956Z,3.47
2018-07-14T02:20:19.735Z,2.90
2018-07-14T02:24:23.307Z,2.77
2018-07-14T02:28:27.088Z,3.10
2018-07-14T02:32:30.856Z,4.10
2018-07-14T02:36:34.436Z,4.67
2018-07-14T02:40:37.993Z,2.30
2018-07-14T02:44:41.592Z,4.43
2018-07-14T02:48:45.349Z,4.03
2018-07-14T02:52:49.028Z,3.80
2018-07-14T02:56:52.789Z,3.47
2018-07-14T03:00:56.481Z,2.40
2018-07-14T03:05:00.233Z,1.80
2018-07-14T03:09:04.632Z,1.83
2018-07-14T03:13:08.424Z,3.00
2018-07-14T03:17:11.968Z,3.70
2018-07-14T03:21:15.771Z,2.20
2018-07-14T03:25:19.452Z,1.70
2018-07-14T03:29:24.092Z,2.20
2018-07-14T03:33:28.210Z,1.43
2018-07-14T03:37:32.068Z,0.73
2018-07-14T03:41:35.988Z,1.97
2018-07-14T03:45:40.219Z,1.43
2018-07-14T03:49:43.792Z,2.47
2018-07-14T03:53:47.589Z,2.17
2018-07-14T03:57:51.256Z,3.07
2018-07-14T04:01:55.174Z,5.43
2018-07-14T04:05:58.791Z,5.20
2018-07-14T04:10:02.499Z,4.90
2018-07-14T04:14:06.376Z,6.47
2018-07-14T04:18:10.020Z,4.57
2018-07-14T04:22:13.816Z,5.43
2018-07-14T04:26:17.685Z,7.03
2018-07-14T04:30:21.374Z,6.47
2018-07-14T04:34:25.324Z,6.40
2018-07-14T04:38:29.244Z,6.60
2018-07-14T04:42:33.176Z,8.10
2018-07-14T04:46:37.308Z,7.47
2018-07-14T04:50:41.425Z,6.27
2018-07-14T04:54:45.308Z,7.90
2018-07-14T04:58:49.783Z,8.37
2018-07-14T05:02:54.648Z,8.90
2018-07-14T05:07:23.852Z,9.07
2018-07-14T05:11:27.551Z,8.80
2018-07-14T05:15:31.091Z,10.20
2018-07-14T05:19:35.073Z,9.40
2018-07-14T05:23:38.992Z,9.43
2018-07-14T05:27:42.687Z,10.77
2018-07-14T05:31:46.212Z,9.70
2018-07-14T05:35:50.193Z,9.40
2018-07-14T05:39:53.842Z,9.67
2018-07-14T05:43:57.645Z,9.57
2018-07-14T05:48:01.513Z,9.03
2018-07-14T05:52:05.250Z,9.87
2018-07-14T05:56:08.909Z,8.70
2018-07-14T06:00:12.680Z,8.97
2018-07-14T06:04:16.548Z,10.00
2018-07-14T06:08:20.216Z,10.20
2018-07-14T06:12:23.760Z,10.70
2018-07-14T06:16:27.665Z,10.83
2018-07-14T06:20:31.514Z,9.90
2018-07-14T06:24:35.200Z,10.67
2018-07-14T06:28:38.956Z,10.70
2018-07-14T06:32:42.645Z,10.13
2018-07-14T06:36:46.628Z,11.70
2018-07-14T06:40:50.567Z,11.37
2018-07-14T06:44:54.465Z,9.70
2018-07-14T06:48:58.400Z,9.17
2018-07-14T06:53:02.291Z,9.70
2018-07-14T06:57:06.013Z,9.27
2018-07-14T07:01:09.748Z,6.80
2018-07-14T07:05:13.525Z,8.20
2018-07-14T07:09:17.649Z,8.70
2018-07-14T07:13:21.612Z,6.67
2018-07-14T07:17:25.957Z,3.83
2018-07-14T07:21:30.305Z,3.10
2018-07-14T07:25:34.136Z,3.40
2018-07-14T07:29:38.335Z,2.27
2018-07-14T07:33:41.981Z,3.10
2018-07-14T07:37:45.654Z,3.10
2018-07-14T07:41:49.387Z,2.60
2018-07-14T07:45:53.072Z,2.83
2018-07-14T07:49:56.845Z,3.30
2018-07-14T07:54:00.547Z,2.30
2018-07-14T07:58:04.071Z,2.60
2018-07-14T08:02:08.308Z,2.43
2018-07-14T08:06:12.161Z,2.13
2018-07-14T08:10:16.072Z,2.50
2018-07-14T08:14:19.771Z,2.33
2018-07-14T08:18:23.590Z,2.37
2018-07-14T08:22:27.499Z,2.37
2018-07-14T08:26:31.749Z,2.03
2018-07-14T08:30:35.644Z,2.57
2018-07-14T08:34:39.799Z,2.20
2018-07-14T08:38:43.532Z,2.80
2018-07-14T08:42:47.324Z,1.90
2018-07-14T08:46:51.201Z,2.37
2018-07-14T08:50:54.882Z,2.67
2018-07-14T08:54:58.623Z,2.07
2018-07-14T08:59:02.534Z,2.17
2018-07-14T09:03:06.175Z,2.13
2018-07-14T09:07:09.732Z,2.47
2018-07-14T09:11:13.482Z,2.10
2018-07-14T09:15:17.141Z,2.00
2018-07-14T09:19:20.888Z,2.07
2018-07-14T09:23:24.567Z,2.57
2018-07-14T09:27:28.143Z,1.57
2018-07-14T09:31:31.916Z,1.80
2018-07-14T09:35:35.889Z,1.93
2018-07-14T09:39:39.707Z,1.83
2018-07-14T09:43:43.721Z,2.30
2018-07-14T09:47:47.806Z,1.83
2018-07-14T09:51:51.468Z,2.00
2018-07-14T09:55:56.972Z,1.70
2018-07-14T10:00:00.820Z,1.57
2018-07-14T10:04:04.477Z,1.47
2018-07-14T10:08:08.210Z,2.00
2018-07-14T10:12:11.867Z,1.57
2018-07-14T10:16:15.605Z,2.00
2018-07-14T10:20:19.323Z,2.00
2018-07-14T10:24:22.845Z,1.53
2018-07-14T10:28:26.611Z,1.57
2018-07-14T10:32:30.263Z,1.40
2018-07-14T10:36:33.953Z,1.03
2018-07-14T10:40:37.982Z,1.20
2018-07-14T10:44:41.926Z,1.20
2018-07-14T10:48:45.786Z,1.50
2018-07-14T10:52:49.701Z,1.40
2018-07-14T10:56:53.577Z,1.43
2018-07-14T11:00:57.616Z,1.37
2018-07-14T11:05:01.264Z,1.30
2018-07-14T11:09:06.140Z,1.00
2018-07-14T11:13:09.791Z,1.20
2018-07-14T11:17:13.356Z,1.23
2018-07-14T11:21:17.099Z,1.20
2018-07-14T11:25:21.096Z,1.40
2018-07-14T11:29:24.952Z,1.00
2018-07-14T11:33:28.923Z,1.20
2018-07-14T11:37:32.472Z,1.47
2018-07-14T11:41:36.255Z,1.33
2018-07-14T11:45:40.012Z,1.13
2018-07-14T11:49:43.924Z,1.40
2018-07-14T11:53:47.563Z,1.37
2018-07-14T11:57:51.120Z,1.50
2018-07-14T12:01:54.926Z,1.20
2018-07-14T12:05:58.559Z,1.03
2018-07-14T12:10:02.085Z,0.90
2018-07-14T12:14:05.640Z,1.50
2018-07-14T12:18:09.240Z,1.23
2018-07-14T12:22:13.139Z,1.17
2018-07-14T12:26:16.795Z,1.10
2018-07-14T12:30:20.471Z,0.90
2018-07-14T12:34:23.927Z,1.20
2018-07-14T12:38:28.483Z,1.37
2018-07-14T12:42:32.342Z,1.00
2018-07-14T12:46:36.111Z,1.00
2018-07-14T12:50:39.636Z,0.93
2018-07-14T12:54:43.489Z,1.23
2018-07-14T12:58:47.515Z,1.57
2018-07-14T13:02:51.320Z,1.10
2018-07-14T13:06:54.966Z,1.13
2018-07-14T13:10:58.525Z,1.00
2018-07-14T13:15:02.280Z,1.37
2018-07-14T13:19:06.236Z,1.20
2018-07-14T13:23:09.874Z,1.13
2018-07-14T13:27:13.423Z,1.40
2018-07-14T13:31:17.165Z,1.60
2018-07-14T13:35:20.843Z,1.10
2018-07-14T13:39:24.591Z,1.40
2018-07-14T13:43:28.595Z,1.40
2018-07-14T13:47:32.321Z,1.07
2018-07-14T13:51:36.075Z,1.50
2018-07-14T13:55:39.800Z,1.43
2018-07-14T13:59:43.911Z,1.30
2018-07-14T14:03:47.770Z,1.27
2018-07-14T14:07:51.443Z,1.00
2018-07-14T14:11:55.257Z,1.33
2018-07-14T14:15:59.214Z,1.17
2018-07-14T14:20:02.978Z,1.60
2018-07-14T14:24:06.732Z,1.00
2018-07-14T14:28:10.572Z,1.13
2018-07-14T14:32:14.236Z,1.20
2018-07-14T14:36:17.747Z,1.23
2018-07-14T14:40:21.640Z,1.00
2018-07-14T14:44:25.466Z,1.50
2018-07-14T14:48:29.103Z,1.27
2018-07-14T14:52:32.824Z,1.07
2018-07-14T14:56:36.830Z,1.10
2018-07-14T15:00:40.475Z,1.30
2018-07-14T15:04:44.360Z,0.93
2018-07-14T15:08:47.943Z,1.40
2018-07-14T15:12:51.484Z,1.10
2018-07-14T15:16:55.217Z,1.20
2018-07-14T15:20:59.004Z,1.00
2018-07-14T15:25:03.828Z,1.20
2018-07-14T15:29:07.744Z,0.97
2018-07-14T15:33:11.506Z,1.73
2018-07-14T15:37:15.142Z,1.00
2018-07-14T15:41:18.976Z,1.00
2018-07-14T15:45:22.976Z,0.90
2018-07-14T15:49:26.643Z,1.30
2018-07-14T15:53:30.239Z,1.10
2018-07-14T15:57:33.840Z,1.07
2018-07-14T16:01:37.506Z,1.00
2018-07-14T16:05:41.345Z,1.33
2018-07-14T16:09:45.075Z,1.30
2018-07-14T16:13:48.680Z,1.30
2018-07-14T16:17:52.420Z,1.03
2018-07-14T16:21:56.260Z,1.30
2018-07-14T16:25:59.924Z,1.00
2018-07-14T16:30:03.692Z,1.27
2018-07-14T16:34:07.598Z,1.00
2018-07-14T16:38:13.387Z,1.20
2018-07-14T16:42:17.200Z,1.20
2018-07-14T16:46:21.282Z,1.20
2018-07-14T16:50:24.960Z,1.43
2018-07-14T16:54:28.486Z,1.33
2018-07-14T16:58:32.295Z,1.20
2018-07-14T17:02:37.855Z,1.40
2018-07-14T17:06:41.567Z,1.30
2018-07-14T17:10:45.088Z,1.20
2018-07-14T17:14:48.719Z,2.47
2018-07-14T17:18:52.464Z,1.87
2018-07-14T17:22:56.383Z,1.80
2018-07-14T17:27:00.072Z,2.23
2018-07-14T17:31:03.956Z,2.10
2018-07-14T17:35:08.053Z,1.50
2018-07-14T17:39:12.290Z,1.80
2018-07-14T17:43:15.923Z,1.97
2018-07-14T17:47:20.676Z,1.90
2018-07-14T17:51:24.638Z,1.63
2018-07-14T17:55:28.356Z,1.50
2018-07-14T17:59:31.864Z,1.33
2018-07-14T18:03:36.932Z,1.47
2018-07-14T18:07:41.241Z,1.00
2018-07-14T18:11:45.161Z,1.63
2018-07-14T18:15:49.106Z,1.60
2018-07-14T18:19:53.184Z,2.13
2018-07-14T18:23:56.751Z,1.33
2018-07-14T18:28:00.348Z,1.17
2018-07-14T18:32:04.570Z,0.93
2018-07-14T18:36:08.424Z,1.13
2018-07-14T18:40:17.077Z,1.13
2018-07-14T18:44:20.721Z,1.10
2018-07-14T18:48:24.316Z,1.37
2018-07-14T18:52:28.648Z,1.20
2018-07-14T18:56:33.181Z,1.20
2018-07-14T19:00:36.900Z,1.23
2018-07-14T19:04:40.438Z,1.40
2018-07-14T19:08:44.581Z,1.60
2018-07-14T19:12:48.605Z,1.17
2018-07-14T19:16:52.572Z,1.23
2018-07-14T19:20:57.048Z,1.20
2018-07-14T19:25:00.605Z,1.47
2018-07-14T19:29:04.149Z,2.13
2018-07-14T19:33:07.800Z,2.50
2018-07-14T19:37:13.050Z,8.90
2018-07-14T19:41:16.970Z,9.67
2018-07-14T19:45:20.646Z,4.90
2018-07-14T19:49:24.196Z,2.60
2018-07-14T19:53:27.961Z,4.40
2018-07-14T19:57:31.701Z,2.30
2018-07-14T20:01:35.937Z,1.60
2018-07-14T20:05:40.162Z,1.60
2018-07-14T20:09:45.733Z,1.43
2018-07-14T20:13:49.791Z,1.20
2018-07-14T20:17:53.553Z,1.77
2018-07-14T20:21:57.645Z,2.27
2018-07-14T20:26:01.553Z,2.87
2018-07-14T20:30:05.849Z,2.20
2018-07-14T20:34:09.713Z,1.60
2018-07-14T20:38:14.217Z,1.50
2018-07-14T20:42:18.028Z,1.60
2018-07-14T20:46:21.764Z,1.60
2018-07-14T20:50:25.675Z,1.30
2018-07-14T20:54:29.448Z,2.40
2018-07-14T20:58:36.280Z,2.73
2018-07-14T21:02:40.315Z,2.07
2018-07-14T21:06:43.960Z,2.93
2018-07-14T21:10:47.865Z,1.80
2018-07-14T21:14:51.790Z,1.90
2018-07-14T21:18:56.114Z,2.70
2018-07-14T21:22:59.988Z,2.40
2018-07-14T21:27:03.717Z,2.10
2018-07-14T21:31:07.239Z,2.20
2018-07-14T21:35:11.194Z,2.03
2018-07-14T21:39:15.025Z,1.93
2018-07-14T21:43:19.425Z,2.93
2018-07-14T21:47:23.529Z,3.30
2018-07-14T21:51:27.537Z,2.97
2018-07-14T21:55:31.420Z,2.07
2018-07-14T21:59:36.018Z,2.67
2018-07-14T22:03:39.893Z,1.83
2018-07-14T22:07:43.821Z,2.30
2018-07-14T22:11:47.688Z,2.50
2018-07-14T22:15:51.252Z,2.10
2018-07-14T22:19:54.776Z,2.37
2018-07-14T22:23:58.345Z,2.40
2018-07-14T22:28:01.882Z,2.73
2018-07-14T22:32:05.464Z,2.40
2018-07-14T22:36:09.221Z,2.90
2018-07-14T22:40:13.903Z,2.80
2018-07-14T22:44:18.543Z,2.53
2018-07-14T22:48:22.436Z,2.47
2018-07-14T22:52:26.332Z,2.70
2018-07-14T22:56:30.046Z,2.63
2018-07-14T23:00:34.488Z,2.83
2018-07-14T23:04:38.192Z,2.97
2018-07-14T23:08:41.726Z,2.50
2018-07-14T23:12:45.628Z,2.97
2018-07-14T23:16:49.281Z,2.87
2018-07-14T23:20:53.830Z,2.70
2018-07-14T23:24:57.724Z,2.50
2018-07-14T23:29:01.637Z,4.33
2018-07-14T23:33:06.026Z,3.60
2018-07-14T23:37:10.069Z,4.30
2018-07-14T23:41:13.744Z,4.47
2018-07-14T23:45:18.066Z,4.90
2018-07-14T23:49:21.745Z,4.90
2018-07-14T23:53:25.611Z,5.30
2018-07-14T23:57:29.243Z,5.07
